sensor_id;sensor_type;location;lat;lon;timestamp;temperature;humidity
17007;DHT22;8620;51.168;4.154;2023-07-20T07:01:30;23.20;99.90
17007;DHT22;8620;51.168;4.154;2023-07-20T07:03:56;23.50;99.90
17007;DHT22;8620;51.168;4.154;2023-07-20T07:06:29;23.60;99.90
17007;DHT22;8620;51.168;4.154;2023-07-20T07:09:01;23.90;99.90
17007;DHT22;8620;51.168;4.154;2023-07-20T07:11:30;22.80;99.90
17007;DHT22;8620;51.168;4.154;2023-07-20T07:13:56;22.80;99.90
17007;DHT22;8620;51.168;4.154;2023-07-20T07:16:27;23.70;99.90
17007;DHT22;8620;51.168;4.154;2023-07-20T07:18:55;23.80;99.90
17007;DHT22;8620;51.168;4.154;2023-07-20T07:21:21;24.40;99.90
17007;DHT22;8620;51.168;4.154;2023-07-20T07:23:47;24.70;99.90
17007;DHT22;8620;51.168;4.154;2023-07-20T07:26:21;25.70;99.90
17007;DHT22;8620;51.168;4.154;2023-07-20T07:28:50;26.10;99.90
17007;DHT22;8620;51.168;4.154;2023-07-20T07:31:15;25.50;99.90
17007;DHT22;8620;51.168;4.154;2023-07-20T07:33:46;24.60;99.90
17007;DHT22;8620;51.168;4.154;2023-07-20T07:36:12;23.50;99.90
17007;DHT22;8620;51.168;4.154;2023-07-20T07:38:41;23.70;99.90
17007;DHT22;8620;51.168;4.154;2023-07-20T07:41:09;23.40;99.90
17007;DHT22;8620;51.168;4.154;2023-07-20T07:43:47;23.60;99.90
17007;DHT22;8620;51.168;4.154;2023-07-20T07:46:15;24.50;99.90
17007;DHT22;8620;51.168;4.154;2023-07-20T07:48:42;25.80;99.90
17007;DHT22;8620;51.168;4.154;2023-07-20T07:51:08;27.00;99.90
17007;DHT22;8620;51.168;4.154;2023-07-20T07:53:34;27.20;99.90
17007;DHT22;8620;51.168;4.154;2023-07-20T07:56:02;26.70;99.90
17007;DHT22;8620;51.168;4.154;2023-07-20T07:58:33;26.50;99.90
17007;DHT22;8620;51.168;4.154;2023-07-20T08:01:00;27.00;99.90
17007;DHT22;8620;51.168;4.154;2023-07-20T08:03:26;27.50;99.90
17007;DHT22;8620;51.168;4.154;2023-07-20T08:05:54;27.30;99.90
17007;DHT22;8620;51.168;4.154;2023-07-20T08:08:25;27.30;99.90
17007;DHT22;8620;51.168;4.154;2023-07-20T08:10:58;26.40;99.90
17007;DHT22;8620;51.168;4.154;2023-07-20T08:13:27;25.20;99.90
17007;DHT22;8620;51.168;4.154;2023-07-20T08:15:55;23.80;99.90
17007;DHT22;8620;51.168;4.154;2023-07-20T08:18:24;23.80;99.90
17007;DHT22;8620;51.168;4.154;2023-07-20T08:20:52;24.80;99.90
17007;DHT22;8620;51.168;4.154;2023-07-20T08:23:24;25.30;99.90
17007;DHT22;8620;51.168;4.154;2023-07-20T08:25:56;26.00;99.90
17007;DHT22;8620;51.168;4.154;2023-07-20T08:28:32;25.90;99.90
17007;DHT22;8620;51.168;4.154;2023-07-20T08:31:14;25.70;99.90
17007;DHT22;8620;51.168;4.154;2023-07-20T08:33:51;25.80;99.90
17007;DHT22;8620;51.168;4.154;2023-07-20T08:36:29;25.50;99.90
17007;DHT22;8620;51.168;4.154;2023-07-20T08:38:59;25.20;99.90
17007;DHT22;8620;51.168;4.154;2023-07-20T08:41:34;26.20;99.90
17007;DHT22;8620;51.168;4.154;2023-07-20T08:44:12;26.90;99.90
17007;DHT22;8620;51.168;4.154;2023-07-20T08:46:47;27.90;99.90
17007;DHT22;8620;51.168;4.154;2023-07-20T08:49:28;28.90;99.90
17007;DHT22;8620;51.168;4.154;2023-07-20T08:52:01;27.90;99.90
17007;DHT22;8620;51.168;4.154;2023-07-20T08:54:37;27.70;99.90
17007;DHT22;8620;51.168;4.154;2023-07-20T08:57:05;26.40;99.90
17007;DHT22;8620;51.168;4.154;2023-07-20T08:59:39;25.70;99.90
17007;DHT22;8620;51.168;4.154;2023-07-20T09:02:12;26.50;99.90
17007;DHT22;8620;51.168;4.154;2023-07-20T09:04:51;27.50;99.90
17007;DHT22;8620;51.168;4.154;2023-07-20T09:07:20;25.70;99.90
17007;DHT22;8620;51.168;4.154;2023-07-20T09:09:50;26.70;99.90
17007;DHT22;8620;51.168;4.154;2023-07-20T09:12:16;27.30;99.90
17007;DHT22;8620;51.168;4.154;2023-07-20T09:14:44;29.10;99.90
17007;DHT22;8620;51.168;4.154;2023-07-20T09:17:17;27.80;99.90
17007;DHT22;8620;51.168;4.154;2023-07-20T09:19:53;27.90;99.90
17007;DHT22;8620;51.168;4.154;2023-07-20T09:22:30;28.30;99.90
17007;DHT22;8620;51.168;4.154;2023-07-20T09:24:56;27.20;99.90
17007;DHT22;8620;51.168;4.154;2023-07-20T09:27:44;26.80;99.90
17007;DHT22;8620;51.168;4.154;2023-07-20T09:30:17;26.70;99.90
17007;DHT22;8620;51.168;4.154;2023-07-20T09:32:56;27.00;99.90
17007;DHT22;8620;51.168;4.154;2023-07-20T09:35:29;27.40;99.90
17007;DHT22;8620;51.168;4.154;2023-07-20T09:38:01;27.00;99.90
17007;DHT22;8620;51.168;4.154;2023-07-20T09:40:37;25.00;99.90
17007;DHT22;8620;51.168;4.154;2023-07-20T09:43:11;25.20;99.90
17007;DHT22;8620;51.168;4.154;2023-07-20T09:45:58;25.60;99.90
17007;DHT22;8620;51.168;4.154;2023-07-20T09:48:30;26.00;99.90
17007;DHT22;8620;51.168;4.154;2023-07-20T09:51:01;26.20;99.90
17007;DHT22;8620;51.168;4.154;2023-07-20T09:53:35;26.40;99.90
17007;DHT22;8620;51.168;4.154;2023-07-20T09:56:06;27.00;99.90
17007;DHT22;8620;51.168;4.154;2023-07-20T09:58:37;26.00;99.90
17007;DHT22;8620;51.168;4.154;2023-07-20T10:01:13;24.60;99.90
17007;DHT22;8620;51.168;4.154;2023-07-20T10:03:45;25.10;99.90
17007;DHT22;8620;51.168;4.154;2023-07-20T10:06:15;25.00;99.90
17007;DHT22;8620;51.168;4.154;2023-07-20T10:08:55;25.10;99.90
17007;DHT22;8620;51.168;4.154;2023-07-20T10:11:27;24.00;99.90
17007;DHT22;8620;51.168;4.154;2023-07-20T10:13:59;25.10;99.90
17007;DHT22;8620;51.168;4.154;2023-07-20T10:16:29;26.60;99.90
17007;DHT22;8620;51.168;4.154;2023-07-20T10:19:13;25.00;99.90
17007;DHT22;8620;51.168;4.154;2023-07-20T10:33:26;25.60;99.90
17007;DHT22;8620;51.168;4.154;2023-07-20T10:38:52;25.70;99.90
17007;DHT22;8620;51.168;4.154;2023-07-20T10:47:54;25.30;99.90
17007;DHT22;8620;51.168;4.154;2023-07-20T10:54:32;24.80;99.90
17007;DHT22;8620;51.168;4.154;2023-07-20T10:57:22;25.60;99.90
17007;DHT22;8620;51.168;4.154;2023-07-20T11:00:28;26.80;99.90
17007;DHT22;8620;51.168;4.154;2023-07-20T11:03:38;27.70;99.90
17007;DHT22;8620;51.168;4.154;2023-07-20T11:15:18;26.30;99.90
17007;DHT22;8620;51.168;4.154;2023-07-20T11:18:13;27.40;99.90
17007;DHT22;8620;51.168;4.154;2023-07-20T11:21:40;27.50;99.90
17007;DHT22;8620;51.168;4.154;2023-07-20T11:24:32;26.20;99.90
17007;DHT22;8620;51.168;4.154;2023-07-20T11:27:38;24.10;99.90
17007;DHT22;8620;51.168;4.154;2023-07-20T11:31:08;23.50;99.90
17007;DHT22;8620;51.168;4.154;2023-07-20T11:33:49;24.40;99.90
17007;DHT22;8620;51.168;4.154;2023-07-20T11:36:36;25.70;99.90
17007;DHT22;8620;51.168;4.154;2023-07-20T11:39:25;24.80;99.90
17007;DHT22;8620;51.168;4.154;2023-07-20T11:42:17;24.90;99.90
17007;DHT22;8620;51.168;4.154;2023-07-20T11:45:04;25.40;99.90
17007;DHT22;8620;51.168;4.154;2023-07-20T11:47:40;24.70;99.90
17007;DHT22;8620;51.168;4.154;2023-07-20T11:50:12;24.40;99.90
17007;DHT22;8620;51.168;4.154;2023-07-20T11:52:45;23.40;99.90
17007;DHT22;8620;51.168;4.154;2023-07-20T11:55:43;23.00;99.90
17007;DHT22;8620;51.168;4.154;2023-07-20T11:58:54;23.00;99.90
17007;DHT22;8620;51.168;4.154;2023-07-20T12:01:40;23.30;99.90
17007;DHT22;8620;51.168;4.154;2023-07-20T12:07:56;23.50;99.90
17007;DHT22;8620;51.168;4.154;2023-07-20T12:11:08;23.10;99.90
17007;DHT22;8620;51.168;4.154;2023-07-20T12:14:07;22.50;99.90
17007;DHT22;8620;51.168;4.154;2023-07-20T12:16:58;22.50;99.90
17007;DHT22;8620;51.168;4.154;2023-07-20T12:19:57;23.20;99.90
17007;DHT22;8620;51.168;4.154;2023-07-20T12:23:08;23.60;99.90
17007;DHT22;8620;51.168;4.154;2023-07-20T12:28:48;25.00;99.90
17007;DHT22;8620;51.168;4.154;2023-07-20T12:31:57;24.20;99.90
17007;DHT22;8620;51.168;4.154;2023-07-20T12:34:54;23.30;99.90
17007;DHT22;8620;51.168;4.154;2023-07-20T12:38:07;23.50;99.90
17007;DHT22;8620;51.168;4.154;2023-07-20T12:41:03;23.70;99.90
17007;DHT22;8620;51.168;4.154;2023-07-20T12:43:52;23.00;99.90
17007;DHT22;8620;51.168;4.154;2023-07-20T12:46:42;22.20;99.90
17007;DHT22;8620;51.168;4.154;2023-07-20T12:49:13;22.70;99.90
17007;DHT22;8620;51.168;4.154;2023-07-20T12:52:08;22.70;99.90
17007;DHT22;8620;51.168;4.154;2023-07-20T12:54:40;23.00;99.90
17007;DHT22;8620;51.168;4.154;2023-07-20T12:57:32;23.00;99.90
17007;DHT22;8620;51.168;4.154;2023-07-20T13:00:14;23.30;99.90
17007;DHT22;8620;51.168;4.154;2023-07-20T13:03:12;23.20;99.90
17007;DHT22;8620;51.168;4.154;2023-07-20T13:06:23;23.60;99.90
17007;DHT22;8620;51.168;4.154;2023-07-20T13:09:20;23.10;99.90
17007;DHT22;8620;51.168;4.154;2023-07-20T13:12:03;22.70;99.90
17007;DHT22;8620;51.168;4.154;2023-07-20T13:15:00;23.20;99.90
17007;DHT22;8620;51.168;4.154;2023-07-20T13:18:08;23.00;99.90
17007;DHT22;8620;51.168;4.154;2023-07-20T13:24:29;23.40;99.90
17007;DHT22;8620;51.168;4.154;2023-07-20T13:27:21;22.70;99.90
17007;DHT22;8620;51.168;4.154;2023-07-20T13:30:37;22.50;99.90
17007;DHT22;8620;51.168;4.154;2023-07-20T13:33:51;22.80;99.90
17007;DHT22;8620;51.168;4.154;2023-07-20T13:36:59;23.40;99.90
17007;DHT22;8620;51.168;4.154;2023-07-20T13:40:12;24.40;99.90
17007;DHT22;8620;51.168;4.154;2023-07-20T13:43:34;24.60;99.90
17007;DHT22;8620;51.168;4.154;2023-07-20T13:46:37;24.80;99.90
17007;DHT22;8620;51.168;4.154;2023-07-20T13:52:43;25.30;99.90
17007;DHT22;8620;51.168;4.154;2023-07-20T13:55:08;24.90;99.90
17007;DHT22;8620;51.168;4.154;2023-07-20T13:57:46;23.70;99.90
17007;DHT22;8620;51.168;4.154;2023-07-20T14:00:13;22.70;99.90
17007;DHT22;8620;51.168;4.154;2023-07-20T14:02:42;22.40;99.90
17007;DHT22;8620;51.168;4.154;2023-07-20T14:05:08;22.60;99.90
17007;DHT22;8620;51.168;4.154;2023-07-20T14:07:37;23.00;99.90
17007;DHT22;8620;51.168;4.154;2023-07-20T14:10:05;23.10;99.90
17007;DHT22;8620;51.168;4.154;2023-07-20T14:12:36;23.60;99.90
17007;DHT22;8620;51.168;4.154;2023-07-20T14:15:05;23.90;99.90
17007;DHT22;8620;51.168;4.154;2023-07-20T14:17:31;24.30;99.90
17007;DHT22;8620;51.168;4.154;2023-07-20T14:20:00;23.90;99.90
17007;DHT22;8620;51.168;4.154;2023-07-20T14:22:26;23.30;99.90
17007;DHT22;8620;51.168;4.154;2023-07-20T14:24:52;22.90;99.90
17007;DHT22;8620;51.168;4.154;2023-07-20T14:27:37;23.00;99.90
17007;DHT22;8620;51.168;4.154;2023-07-20T14:30:07;22.60;99.90
17007;DHT22;8620;51.168;4.154;2023-07-20T14:32:41;22.60;99.90
17007;DHT22;8620;51.168;4.154;2023-07-20T14:35:10;22.30;99.90
17007;DHT22;8620;51.168;4.154;2023-07-20T14:37:36;22.50;99.90
17007;DHT22;8620;51.168;4.154;2023-07-20T14:40:03;23.00;99.90
17007;DHT22;8620;51.168;4.154;2023-07-20T14:42:30;23.30;99.90
17007;DHT22;8620;51.168;4.154;2023-07-20T14:44:58;23.10;99.90
17007;DHT22;8620;51.168;4.154;2023-07-20T14:47:26;22.90;99.90
17007;DHT22;8620;51.168;4.154;2023-07-20T14:49:58;22.90;99.90
17007;DHT22;8620;51.168;4.154;2023-07-20T14:52:31;22.90;99.90
17007;DHT22;8620;51.168;4.154;2023-07-20T14:55:00;22.70;99.90
17007;DHT22;8620;51.168;4.154;2023-07-20T14:57:28;22.20;99.90
17007;DHT22;8620;51.168;4.154;2023-07-20T15:00:07;22.00;99.90
17007;DHT22;8620;51.168;4.154;2023-07-20T15:02:41;21.90;99.90
17007;DHT22;8620;51.168;4.154;2023-07-20T15:05:12;21.80;99.90
17007;DHT22;8620;51.168;4.154;2023-07-20T15:07:52;21.80;99.90
17007;DHT22;8620;51.168;4.154;2023-07-20T15:10:19;21.70;99.90
17007;DHT22;8620;51.168;4.154;2023-07-20T15:12:45;21.60;99.90
17007;DHT22;8620;51.168;4.154;2023-07-20T15:15:34;21.80;99.90
17007;DHT22;8620;51.168;4.154;2023-07-20T15:18:26;22.00;99.90
17007;DHT22;8620;51.168;4.154;2023-07-20T15:21:17;22.10;99.90
17007;DHT22;8620;51.168;4.154;2023-07-20T15:24:09;22.00;99.90
17007;DHT22;8620;51.168;4.154;2023-07-20T15:27:07;21.70;99.90
17007;DHT22;8620;51.168;4.154;2023-07-20T15:30:05;21.70;99.90
17007;DHT22;8620;51.168;4.154;2023-07-20T15:33:03;21.30;99.90
17007;DHT22;8620;51.168;4.154;2023-07-20T15:35:55;21.10;99.90
17007;DHT22;8620;51.168;4.154;2023-07-20T15:38:47;21.30;99.90
17007;DHT22;8620;51.168;4.154;2023-07-20T15:41:54;21.40;99.90
17007;DHT22;8620;51.168;4.154;2023-07-20T15:44:49;21.50;99.90
17007;DHT22;8620;51.168;4.154;2023-07-20T15:47:40;21.60;99.90
17007;DHT22;8620;51.168;4.154;2023-07-20T15:50:32;21.30;99.90
17007;DHT22;8620;51.168;4.154;2023-07-20T15:53:58;20.40;99.90
17007;DHT22;8620;51.168;4.154;2023-07-20T15:56:51;20.40;99.90
17007;DHT22;8620;51.168;4.154;2023-07-20T15:59:47;20.00;99.90
17007;DHT22;8620;51.168;4.154;2023-07-20T16:02:37;20.30;99.90
17007;DHT22;8620;51.168;4.154;2023-07-20T16:05:29;19.80;99.90
17007;DHT22;8620;51.168;4.154;2023-07-20T16:08:35;19.70;99.90
17007;DHT22;8620;51.168;4.154;2023-07-20T16:11:32;20.20;99.90
17007;DHT22;8620;51.168;4.154;2023-07-20T16:14:29;21.00;99.90
17007;DHT22;8620;51.168;4.154;2023-07-20T16:17:18;21.30;99.90
17007;DHT22;8620;51.168;4.154;2023-07-20T16:20:08;21.60;99.90
17007;DHT22;8620;51.168;4.154;2023-07-20T16:22:59;21.70;99.90
17007;DHT22;8620;51.168;4.154;2023-07-20T16:25:34;21.80;99.90
17007;DHT22;8620;51.168;4.154;2023-07-20T16:28:50;22.00;99.90
17007;DHT22;8620;51.168;4.154;2023-07-20T16:31:42;22.30;99.90
17007;DHT22;8620;51.168;4.154;2023-07-20T16:34:33;22.50;99.90
17007;DHT22;8620;51.168;4.154;2023-07-20T16:37:04;22.30;99.90
17007;DHT22;8620;51.168;4.154;2023-07-20T16:40:12;22.10;99.90
17007;DHT22;8620;51.168;4.154;2023-07-20T16:43:01;21.70;99.90
17007;DHT22;8620;51.168;4.154;2023-07-20T16:45:39;21.50;99.90
17007;DHT22;8620;51.168;4.154;2023-07-20T16:48:08;21.40;99.90
17007;DHT22;8620;51.168;4.154;2023-07-20T16:50:52;20.90;99.90
17007;DHT22;8620;51.168;4.154;2023-07-20T16:53:53;20.50;99.90
17007;DHT22;8620;51.168;4.154;2023-07-20T16:56:54;21.00;99.90
17007;DHT22;8620;51.168;4.154;2023-07-20T16:59:24;21.00;99.90
17007;DHT22;8620;51.168;4.154;2023-07-20T17:02:19;21.40;99.90
17007;DHT22;8620;51.168;4.154;2023-07-20T17:05:13;21.60;99.90
17007;DHT22;8620;51.168;4.154;2023-07-20T17:08:24;21.50;99.90
17007;DHT22;8620;51.168;4.154;2023-07-20T17:10:53;21.60;99.90
17007;DHT22;8620;51.168;4.154;2023-07-20T17:13:50;21.80;99.90
17007;DHT22;8620;51.168;4.154;2023-07-20T17:16:20;22.00;99.90
17007;DHT22;8620;51.168;4.154;2023-07-20T17:18:46;22.10;99.90
17007;DHT22;8620;51.168;4.154;2023-07-20T17:21:54;22.10;99.90
17007;DHT22;8620;51.168;4.154;2023-07-20T17:24:25;22.00;99.90
17007;DHT22;8620;51.168;4.154;2023-07-20T17:26:52;21.80;99.90
17007;DHT22;8620;51.168;4.154;2023-07-20T17:29:18;21.30;99.90
17007;DHT22;8620;51.168;4.154;2023-07-20T17:32:21;21.60;99.90
17007;DHT22;8620;51.168;4.154;2023-07-20T17:35:30;21.40;99.90
17007;DHT22;8620;51.168;4.154;2023-07-20T17:38:11;21.40;99.90
17007;DHT22;8620;51.168;4.154;2023-07-20T17:41:07;21.10;99.90
17007;DHT22;8620;51.168;4.154;2023-07-20T17:43:55;21.10;99.90
17007;DHT22;8620;51.168;4.154;2023-07-20T17:46:21;21.30;99.90
17007;DHT22;8620;51.168;4.154;2023-07-20T17:49:52;21.40;99.90
17007;DHT22;8620;51.168;4.154;2023-07-20T17:52:46;21.00;99.90
17007;DHT22;8620;51.168;4.154;2023-07-20T17:55:50;20.80;99.90
17007;DHT22;8620;51.168;4.154;2023-07-20T17:58:15;21.10;99.90
17007;DHT22;8620;51.168;4.154;2023-07-20T18:01:01;21.40;99.90
17007;DHT22;8620;51.168;4.154;2023-07-20T18:03:27;21.80;99.90
17007;DHT22;8620;51.168;4.154;2023-07-20T18:06:02;21.90;99.90
17007;DHT22;8620;51.168;4.154;2023-07-20T18:08:39;21.90;99.90
17007;DHT22;8620;51.168;4.154;2023-07-20T18:11:10;21.90;99.90
17007;DHT22;8620;51.168;4.154;2023-07-20T18:13:36;21.90;99.90
17007;DHT22;8620;51.168;4.154;2023-07-20T18:16:02;21.90;99.90
17007;DHT22;8620;51.168;4.154;2023-07-20T18:18:28;21.90;99.90
17007;DHT22;8620;51.168;4.154;2023-07-20T18:21:06;22.20;99.90
17007;DHT22;8620;51.168;4.154;2023-07-20T18:23:42;22.30;99.90
17007;DHT22;8620;51.168;4.154;2023-07-20T18:26:19;22.00;99.90
17007;DHT22;8620;51.168;4.154;2023-07-20T18:29:01;22.10;99.90
17007;DHT22;8620;51.168;4.154;2023-07-20T18:31:27;22.10;99.90
17007;DHT22;8620;51.168;4.154;2023-07-20T18:33:53;21.70;99.90
17007;DHT22;8620;51.168;4.154;2023-07-20T18:36:19;21.80;99.90
17007;DHT22;8620;51.168;4.154;2023-07-20T18:38:45;21.70;99.90
17007;DHT22;8620;51.168;4.154;2023-07-20T18:41:11;21.90;99.90
17007;DHT22;8620;51.168;4.154;2023-07-20T18:43:58;22.10;99.90
17007;DHT22;8620;51.168;4.154;2023-07-20T18:46:26;22.00;99.90
17007;DHT22;8620;51.168;4.154;2023-07-20T18:48:52;22.10;99.90
17007;DHT22;8620;51.168;4.154;2023-07-20T18:51:22;21.80;99.90
17007;DHT22;8620;51.168;4.154;2023-07-20T18:53:48;21.60;99.90
17007;DHT22;8620;51.168;4.154;2023-07-20T18:56:13;21.30;99.90
17007;DHT22;8620;51.168;4.154;2023-07-20T18:58:39;21.30;99.90
17007;DHT22;8620;51.168;4.154;2023-07-20T19:01:05;21.40;99.90
17007;DHT22;8620;51.168;4.154;2023-07-20T19:03:31;21.40;99.90
17007;DHT22;8620;51.168;4.154;2023-07-20T19:06:02;21.20;99.90
17007;DHT22;8620;51.168;4.154;2023-07-20T19:08:53;21.20;99.90
17007;DHT22;8620;51.168;4.154;2023-07-20T19:11:19;21.20;99.90
17007;DHT22;8620;51.168;4.154;2023-07-20T19:13:51;21.10;99.90
17007;DHT22;8620;51.168;4.154;2023-07-20T19:16:16;21.10;99.90
17007;DHT22;8620;51.168;4.154;2023-07-20T19:18:42;20.90;99.90
17007;DHT22;8620;51.168;4.154;2023-07-20T19:21:08;20.70;99.90
17007;DHT22;8620;51.168;4.154;2023-07-20T19:23:34;20.60;99.90
17007;DHT22;8620;51.168;4.154;2023-07-20T19:26:08;20.50;99.90
17007;DHT22;8620;51.168;4.154;2023-07-20T19:28:40;20.30;99.90
17007;DHT22;8620;51.168;4.154;2023-07-20T19:31:44;20.30;99.90
17007;DHT22;8620;51.168;4.154;2023-07-20T19:34:17;20.50;99.90
17007;DHT22;8620;51.168;4.154;2023-07-20T19:37:18;20.60;99.90
17007;DHT22;8620;51.168;4.154;2023-07-20T19:39:49;20.80;99.90
17007;DHT22;8620;51.168;4.154;2023-07-20T19:42:26;20.50;99.90
17007;DHT22;8620;51.168;4.154;2023-07-20T19:45:04;20.40;99.90
17007;DHT22;8620;51.168;4.154;2023-07-20T19:47:39;20.20;99.90
17007;DHT22;8620;51.168;4.154;2023-07-20T19:50:06;20.00;99.90
17007;DHT22;8620;51.168;4.154;2023-07-20T19:52:32;19.70;99.90
17007;DHT22;8620;51.168;4.154;2023-07-20T19:54:58;19.80;99.90
17007;DHT22;8620;51.168;4.154;2023-07-20T19:57:24;19.70;99.90
17007;DHT22;8620;51.168;4.154;2023-07-20T20:00:12;19.50;99.90
17007;DHT22;8620;51.168;4.154;2023-07-20T20:02:55;19.70;99.90
17007;DHT22;8620;51.168;4.154;2023-07-20T20:05:21;19.80;99.90
17007;DHT22;8620;51.168;4.154;2023-07-20T20:07:47;19.70;99.90
17007;DHT22;8620;51.168;4.154;2023-07-20T20:10:16;19.40;99.90
17007;DHT22;8620;51.168;4.154;2023-07-20T20:12:45;19.60;99.90
17007;DHT22;8620;51.168;4.154;2023-07-20T20:15:12;19.40;99.90
17007;DHT22;8620;51.168;4.154;2023-07-20T20:17:40;19.10;99.90
17007;DHT22;8620;51.168;4.154;2023-07-20T20:20:10;19.00;99.90
17007;DHT22;8620;51.168;4.154;2023-07-20T20:22:37;19.10;99.90
17007;DHT22;8620;51.168;4.154;2023-07-20T20:25:02;19.20;99.90
17007;DHT22;8620;51.168;4.154;2023-07-20T20:27:28;19.20;99.90
17007;DHT22;8620;51.168;4.154;2023-07-20T20:29:54;19.10;99.90
17007;DHT22;8620;51.168;4.154;2023-07-20T20:32:23;18.80;99.90
17007;DHT22;8620;51.168;4.154;2023-07-20T20:34:51;18.60;99.90
17007;DHT22;8620;51.168;4.154;2023-07-20T20:37:17;18.60;99.90
17007;DHT22;8620;51.168;4.154;2023-07-20T20:39:43;18.60;99.90
17007;DHT22;8620;51.168;4.154;2023-07-20T20:42:08;18.90;99.90
17007;DHT22;8620;51.168;4.154;2023-07-20T20:44:34;19.00;99.90
17007;DHT22;8620;51.168;4.154;2023-07-20T20:47:00;19.00;99.90
17007;DHT22;8620;51.168;4.154;2023-07-20T20:49:31;18.90;99.90
17007;DHT22;8620;51.168;4.154;2023-07-20T20:51:57;19.00;99.90
17007;DHT22;8620;51.168;4.154;2023-07-20T20:54:35;18.80;99.90
17007;DHT22;8620;51.168;4.154;2023-07-20T20:57:01;18.80;99.90
